Edison, Ohio
Current Conditions -  °F | °C
As of 8:53 PM on Saturday 20 Dec 2014 (Local Time) from KMNN Reporting Station
Haze Haze  
Wind Chill: 29°   Ceiling: 2700
Heat Index: 29°   Visibility: 5mi
Dew Point: 25°   Wind: 3mph
Humidity: 85%   Direction: 210°SSW
Pressure: 30.29"   Gusts: NA
Location:  40.56°N, 82.86°W
Report Text: KMNN 210153Z AUTO 21003KT 5SM BR OVC027 M02/M04 A3029 RMK AO2 SLP270 T10171039 TSNO
Loading
Personal Weather Stations






























Interactive Weather Map New forecast layout! Learn more

10-Day Weather Forecast

Advertisements
Track Severe Weather on mobile